Time;durP1;ratioP1;P1;durP2;ratioP2;P2;SDS_P1;SDS_P2;PMS_P1;PMS_P2;Temp;Humidity;BMP_temperature;BMP_pressure;BME280_temperature;BME280_humidity;BME280_pressure;Samples;Min_cycle;Max_cycle;Signal;HPM_P1;HPM_P2
2021/03/13 00:02:21;;;;;;;47.45;6.13;;;;;;;;;;5000427;28;20076;-80
2021/03/13 00:04:47;;;;;;;55.22;7.70;;;;;;;;;;5001594;28;20125;-81
2021/03/13 00:07:14;;;;;;;53.28;6.95;;;;;;;;;;5006429;28;20503;-82
2021/03/13 00:09:40;;;;;;;41.60;6.60;;;;;;;;;;4979361;28;20498;-82
2021/03/13 00:12:06;;;;;;;51.28;6.20;;;;;;;;;;4999677;28;20092;-81
2021/03/13 00:14:32;;;;;;;65.45;8.85;;;;;;;;;;4998514;28;20548;-81
2021/03/13 00:16:59;;;;;;;45.65;6.65;;;;;;;;;;5002998;28;20049;-82
2021/03/13 00:19:25;;;;;;;50.95;7.05;;;;;;;;;;4995625;28;20038;-82
2021/03/13 00:21:51;;;;;;;59.30;7.72;;;;;;;;;;5001049;28;20493;-82
2021/03/13 00:24:17;;;;;;;38.80;6.80;;;;;;;;;;4995618;28;20125;-82
2021/03/13 00:26:43;;;;;;;54.22;6.75;;;;;;;;;;4997052;28;20049;-82
2021/03/13 00:29:09;;;;;;;48.80;6.65;;;;;;;;;;4980334;28;20401;-81
2021/03/13 00:31:35;;;;;;;49.08;7.05;;;;;;;;;;4993107;28;20046;-82
2021/03/13 00:34:02;;;;;;;48.38;6.32;;;;;;;;;;5001152;28;20116;-81
2021/03/13 00:36:28;;;;;;;44.15;6.15;;;;;;;;;;4981852;28;20117;-81
2021/03/13 00:38:54;;;;;;;37.75;5.68;;;;;;;;;;4989923;28;20069;-82
2021/03/13 00:41:20;;;;;;;41.53;7.05;;;;;;;;;;4987899;28;20043;-81
2021/03/13 00:43:46;;;;;;;38.53;5.82;;;;;;;;;;4978801;28;20046;-81
2021/03/13 00:46:12;;;;;;;43.28;5.70;;;;;;;;;;4983373;28;20584;-81
2021/03/13 00:48:39;;;;;;;42.92;5.90;;;;;;;;;;4983667;28;20138;-82
2021/03/13 00:51:05;;;;;;;34.42;4.43;;;;;;;;;;5008142;28;20045;-82
2021/03/13 00:53:31;;;;;;;47.72;6.47;;;;;;;;;;4994136;28;20039;-82
2021/03/13 00:55:57;;;;;;;38.10;5.20;;;;;;;;;;4988244;28;20034;-82
2021/03/13 00:58:24;;;;;;;35.65;7.00;;;;;;;;;;4999206;28;20084;-81
2021/03/13 01:00:50;;;;;;;24.42;4.57;;;;;;;;;;5008252;28;20134;-82
2021/03/13 01:03:16;;;;;;;36.58;4.82;;;;;;;;;;4994486;28;20044;-82
2021/03/13 01:05:42;;;;;;;33.97;4.80;;;;;;;;;;5005947;28;20041;-82
2021/03/13 01:08:09;;;;;;;32.13;4.75;;;;;;;;;;4999833;28;20088;-82
2021/03/13 01:10:36;;;;;;;35.17;5.85;;;;;;;;;;4992566;28;20053;-83
2021/03/13 01:13:04;;;;;;;43.53;6.25;;;;;;;;;;4984186;28;20049;-82
2021/03/13 01:15:30;;;;;;;26.38;4.32;;;;;;;;;;4997546;28;20073;-82
2021/03/13 01:17:56;;;;;;;38.53;4.93;;;;;;;;;;4989308;28;20038;-82
2021/03/13 01:20:24;;;;;;;33.08;4.35;;;;;;;;;;4998235;28;20066;-82
2021/03/13 01:22:50;;;;;;;32.70;4.50;;;;;;;;;;5003940;28;20085;-82
2021/03/13 01:25:17;;;;;;;36.35;5.18;;;;;;;;;;4994952;28;20125;-83
2021/03/13 01:27:45;;;;;;;30.33;4.70;;;;;;;;;;4995789;28;20042;-83
2021/03/13 01:30:13;;;;;;;36.63;4.97;;;;;;;;;;4988952;28;20092;-82
2021/03/13 01:32:39;;;;;;;35.85;5.40;;;;;;;;;;5002073;28;20084;-81
2021/03/13 01:35:06;;;;;;;37.88;5.53;;;;;;;;;;4981921;28;20042;-81
2021/03/13 01:37:32;;;;;;;32.50;6.50;;;;;;;;;;5005979;28;20612;-81
2021/03/13 01:39:59;;;;;;;32.17;6.25;;;;;;;;;;4994180;28;20046;-80
2021/03/13 01:42:25;;;;;;;39.40;6.72;;;;;;;;;;4997453;28;20078;-81
2021/03/13 01:44:51;;;;;;;35.85;6.85;;;;;;;;;;5003220;28;20057;-81
2021/03/13 01:47:22;;;;;;;40.53;7.10;;;;;;;;;;4985498;28;20117;-82
2021/03/13 01:49:49;;;;;;;41.25;8.50;;;;;;;;;;4987542;28;20073;-81
2021/03/13 01:52:16;;;;;;;43.40;8.90;;;;;;;;;;5003682;28;20551;-80
2021/03/13 01:54:42;;;;;;;46.70;9.55;;;;;;;;;;4987295;28;20088;-81
2021/03/13 01:57:09;;;;;;;43.72;9.65;;;;;;;;;;5003605;28;20096;-82
2021/03/13 01:59:35;;;;;;;43.20;9.93;;;;;;;;;;5005699;28;20045;-81
2021/03/13 02:02:05;;;;;;;44.08;11.02;;;;;;;;;;4998618;28;20030;-82
2021/03/13 02:04:31;;;;;;;42.08;9.93;;;;;;;;;;4988639;28;20042;-81
2021/03/13 02:07:03;;;;;;;35.85;9.07;;;;;;;;;;5004514;28;20042;-80
2021/03/13 02:09:35;;;;;;;49.92;11.15;;;;;;;;;;5011396;28;20040;-81
2021/03/13 02:12:13;;;;;;;44.38;10.27;;;;;;;;;;5007142;28;20049;-81
2021/03/13 02:15:12;;;;;;;56.13;10.48;;;;;;;;;;5000658;28;20073;-82
2021/03/13 02:17:43;;;;;;;35.95;10.40;;;;;;;;;;4952039;28;20061;-81
2021/03/13 02:20:12;;;;;;;41.80;10.80;;;;;;;;;;5010889;28;20062;-81
2021/03/13 02:22:39;;;;;;;32.83;10.18;;;;;;;;;;4999734;28;20068;-81
2021/03/13 02:25:08;;;;;;;43.70;10.80;;;;;;;;;;5011218;28;20401;-81
2021/03/13 02:27:40;;;;;;;33.72;10.10;;;;;;;;;;5005008;28;20045;-80
2021/03/13 02:30:21;;;;;;;35.42;9.65;;;;;;;;;;4996691;28;20537;-81
2021/03/13 02:32:59;;;;;;;39.10;10.23;;;;;;;;;;4989690;28;20050;-81
2021/03/13 02:35:28;;;;;;;45.80;10.52;;;;;;;;;;4988004;28;20469;-80
2021/03/13 02:37:57;;;;;;;38.90;9.60;;;;;;;;;;4992782;28;20093;-81
2021/03/13 02:40:25;;;;;;;35.47;10.05;;;;;;;;;;5004239;28;20129;-80
2021/03/13 02:42:56;;;;;;;36.97;8.95;;;;;;;;;;4998482;28;20038;-81
2021/03/13 02:45:23;;;;;;;37.90;10.95;;;;;;;;;;5001280;28;20564;-81
2021/03/13 02:47:51;;;;;;;39.15;9.80;;;;;;;;;;5001872;28;20030;-82
2021/03/13 02:50:18;;;;;;;51.83;11.10;;;;;;;;;;5010584;28;20116;-81
2021/03/13 02:52:44;;;;;;;32.88;9.23;;;;;;;;;;4988072;28;20088;-81
2021/03/13 02:55:12;;;;;;;37.92;8.38;;;;;;;;;;5005861;28;20551;-81
2021/03/13 02:57:39;;;;;;;37.90;8.45;;;;;;;;;;4994335;28;20038;-81
2021/03/13 03:00:06;;;;;;;32.95;8.13;;;;;;;;;;5001176;28;20442;-81
2021/03/13 03:02:34;;;;;;;34.92;9.00;;;;;;;;;;5002910;28;20072;-81
2021/03/13 03:05:02;;;;;;;32.85;8.20;;;;;;;;;;4988652;28;20072;-81
2021/03/13 03:07:28;;;;;;;34.33;8.32;;;;;;;;;;5009670;28;20049;-81
2021/03/13 03:09:55;;;;;;;34.30;8.82;;;;;;;;;;5009182;28;20379;-82
2021/03/13 03:12:22;;;;;;;45.08;8.02;;;;;;;;;;4995591;28;20042;-81
2021/03/13 03:14:49;;;;;;;28.80;7.35;;;;;;;;;;5002064;28;20112;-83
2021/03/13 03:17:16;;;;;;;25.30;6.80;;;;;;;;;;5000349;28;20113;-81
2021/03/13 03:19:43;;;;;;;27.40;7.40;;;;;;;;;;5001238;28;20038;-84
2021/03/13 03:22:09;;;;;;;19.13;6.75;;;;;;;;;;5004392;28;20448;-82
2021/03/13 03:24:35;;;;;;;23.17;6.63;;;;;;;;;;4991198;28;20100;-82
2021/03/13 03:27:02;;;;;;;22.05;7.22;;;;;;;;;;5002163;28;20038;-82
2021/03/13 03:29:28;;;;;;;21.10;6.65;;;;;;;;;;4980519;28;20034;-83
2021/03/13 03:31:55;;;;;;;19.35;8.27;;;;;;;;;;5002693;28;20046;-83
2021/03/13 03:34:21;;;;;;;23.33;8.75;;;;;;;;;;5000385;28;20482;-81
2021/03/13 03:36:47;;;;;;;27.30;9.30;;;;;;;;;;5005323;28;20046;-81
2021/03/13 03:39:13;;;;;;;22.15;8.65;;;;;;;;;;4978607;28;20119;-81
2021/03/13 03:41:43;;;;;;;23.55;9.70;;;;;;;;;;5003841;28;20034;-81
2021/03/13 03:44:12;;;;;;;26.60;9.82;;;;;;;;;;5003601;28;20042;-82
2021/03/13 03:46:39;;;;;;;34.17;10.32;;;;;;;;;;5001510;28;20074;-82
2021/03/13 03:49:06;;;;;;;24.42;9.13;;;;;;;;;;4996012;28;20462;-82
2021/03/13 03:51:33;;;;;;;25.15;9.02;;;;;;;;;;5003158;28;20049;-83
2021/03/13 03:54:00;;;;;;;18.15;8.55;;;;;;;;;;4996328;28;20049;-82
2021/03/13 03:56:27;;;;;;;27.50;9.60;;;;;;;;;;5008160;28;20042;-81
2021/03/13 03:58:54;;;;;;;15.82;7.88;;;;;;;;;;4983943;28;20504;-82
2021/03/13 04:01:22;;;;;;;16.58;7.47;;;;;;;;;;4999705;28;20129;-82
2021/03/13 04:03:51;;;;;;;19.52;7.70;;;;;;;;;;5007085;28;20046;-83
2021/03/13 04:06:17;;;;;;;7.35;3.88;;;;;;;;;;5002120;28;20038;-82
2021/03/13 04:08:44;;;;;;;9.90;4.20;;;;;;;;;;5012009;28;20057;-82
2021/03/13 04:11:18;;;;;;;8.20;3.80;;;;;;;;;;5010321;28;20037;-82
2021/03/13 04:13:44;;;;;;;8.25;3.80;;;;;;;;;;4993774;28;20126;-82
2021/03/13 04:16:11;;;;;;;10.40;4.43;;;;;;;;;;4989501;28;20034;-81
2021/03/13 04:18:37;;;;;;;10.00;5.28;;;;;;;;;;5003336;28;20045;-81
2021/03/13 04:21:03;;;;;;;12.70;4.47;;;;;;;;;;4994721;28;20042;-80
2021/03/13 04:23:30;;;;;;;9.38;4.63;;;;;;;;;;4992911;28;20116;-81
2021/03/13 04:25:56;;;;;;;9.52;4.45;;;;;;;;;;4987093;28;20057;-80
2021/03/13 04:28:22;;;;;;;8.77;4.85;;;;;;;;;;5008240;28;20100;-82
2021/03/13 04:30:52;;;;;;;8.18;4.97;;;;;;;;;;4998911;28;20121;-82
2021/03/13 04:33:18;;;;;;;11.70;4.97;;;;;;;;;;4983876;28;20033;-81
2021/03/13 04:35:46;;;;;;;8.75;4.53;;;;;;;;;;5003179;28;20053;-80
2021/03/13 04:38:13;;;;;;;9.32;4.68;;;;;;;;;;5002339;28;20504;-80
2021/03/13 04:40:39;;;;;;;7.47;4.50;;;;;;;;;;5002270;28;20482;-80
2021/03/13 04:43:06;;;;;;;8.13;4.60;;;;;;;;;;4982926;28;20453;-82
2021/03/13 04:45:33;;;;;;;7.68;4.57;;;;;;;;;;4993098;28;20426;-82
2021/03/13 04:48:01;;;;;;;10.48;4.88;;;;;;;;;;4983114;28;20069;-82
2021/03/13 04:50:27;;;;;;;7.45;4.20;;;;;;;;;;5000240;28;20042;-81
2021/03/13 04:52:54;;;;;;;8.38;5.13;;;;;;;;;;5002636;28;20038;-82
2021/03/13 04:55:20;;;;;;;9.50;4.65;;;;;;;;;;4983869;28;20129;-81
2021/03/13 04:57:46;;;;;;;12.93;5.53;;;;;;;;;;4988639;28;20508;-82
2021/03/13 05:00:14;;;;;;;8.52;4.28;;;;;;;;;;4998517;28;20046;-82
2021/03/13 05:02:40;;;;;;;14.35;4.55;;;;;;;;;;5006913;28;20037;-82
2021/03/13 05:05:07;;;;;;;9.05;5.03;;;;;;;;;;5000350;28;20482;-81
2021/03/13 05:07:33;;;;;;;7.80;4.43;;;;;;;;;;5005757;28;20045;-81
2021/03/13 05:09:59;;;;;;;9.30;4.60;;;;;;;;;;5000352;28;20061;-81
2021/03/13 05:12:26;;;;;;;8.55;4.95;;;;;;;;;;4993152;28;20034;-82
2021/03/13 05:14:52;;;;;;;11.52;4.80;;;;;;;;;;4984168;28;20077;-81
2021/03/13 05:17:19;;;;;;;8.27;4.82;;;;;;;;;;4998513;28;20038;-82
2021/03/13 05:19:45;;;;;;;8.82;4.38;;;;;;;;;;4993392;28;20507;-81
2021/03/13 05:22:11;;;;;;;8.55;5.40;;;;;;;;;;5006168;28;20038;-81
2021/03/13 05:24:37;;;;;;;8.10;5.68;;;;;;;;;;5000313;28;20035;-81
2021/03/13 05:27:04;;;;;;;12.50;5.53;;;;;;;;;;5001412;28;20038;-83
2021/03/13 05:29:31;;;;;;;7.28;5.10;;;;;;;;;;5002394;28;20038;-80
2021/03/13 05:31:57;;;;;;;9.25;5.38;;;;;;;;;;4984257;28;20478;-81
2021/03/13 05:34:23;;;;;;;10.35;5.38;;;;;;;;;;4997499;28;20041;-82
2021/03/13 05:36:49;;;;;;;11.15;6.43;;;;;;;;;;4995917;28;20538;-80
2021/03/13 05:39:15;;;;;;;9.32;5.47;;;;;;;;;;4982405;28;20097;-81
2021/03/13 05:41:42;;;;;;;9.70;6.18;;;;;;;;;;5004219;28;20057;-81
2021/03/13 05:44:08;;;;;;;14.90;7.07;;;;;;;;;;4984779;28;20041;-80
2021/03/13 05:46:37;;;;;;;9.43;6.22;;;;;;;;;;5002691;28;20053;-82
2021/03/13 05:49:07;;;;;;;11.00;6.95;;;;;;;;;;5002894;28;20053;-81
2021/03/13 05:51:37;;;;;;;10.68;5.57;;;;;;;;;;4989249;28;20054;-80
2021/03/13 05:54:05;;;;;;;12.50;7.38;;;;;;;;;;5006525;28;20042;-80
2021/03/13 05:56:31;;;;;;;9.30;6.38;;;;;;;;;;5002420;28;20038;-81
2021/03/13 05:58:59;;;;;;;11.98;7.07;;;;;;;;;;4982073;28;20389;-80
2021/03/13 06:01:27;;;;;;;11.85;6.13;;;;;;;;;;5005495;28;20082;-83
2021/03/13 06:03:53;;;;;;;11.68;6.10;;;;;;;;;;5008367;28;20042;-81
2021/03/13 06:06:21;;;;;;;9.10;4.95;;;;;;;;;;4980323;28;20064;-81
2021/03/13 06:08:47;;;;;;;11.25;5.82;;;;;;;;;;5009270;28;20117;-80
2021/03/13 06:11:14;;;;;;;10.68;5.20;;;;;;;;;;4989666;28;20117;-81
2021/03/13 06:13:40;;;;;;;9.15;5.53;;;;;;;;;;4984777;28;20118;-81
2021/03/13 06:16:06;;;;;;;12.75;6.55;;;;;;;;;;5004604;28;20042;-80
2021/03/13 06:18:48;;;;;;;8.25;4.68;;;;;;;;;;5009967;28;20070;-81
2021/03/13 06:21:21;;;;;;;13.80;5.20;;;;;;;;;;5008731;28;20120;-81
2021/03/13 06:23:47;;;;;;;8.23;5.03;;;;;;;;;;5009275;28;20088;-80
2021/03/13 06:26:13;;;;;;;8.45;4.07;;;;;;;;;;5009027;28;20049;-81
2021/03/13 06:28:39;;;;;;;8.05;4.00;;;;;;;;;;4991818;28;20066;-80
2021/03/13 06:31:07;;;;;;;6.82;3.92;;;;;;;;;;4983647;28;20393;-81
2021/03/13 06:33:34;;;;;;;6.78;3.45;;;;;;;;;;4987127;28;20543;-81
2021/03/13 06:36:04;;;;;;;8.57;4.53;;;;;;;;;;5011609;28;20044;-81
2021/03/13 06:38:31;;;;;;;6.15;3.65;;;;;;;;;;4992925;28;20382;-81
2021/03/13 06:41:18;;;;;;;4.75;3.22;;;;;;;;;;4981566;28;20038;-81
2021/03/13 06:43:45;;;;;;;6.85;3.17;;;;;;;;;;4992298;28;20046;-80
2021/03/13 06:46:21;;;;;;;6.47;2.78;;;;;;;;;;4987313;28;20084;-81
2021/03/13 06:48:49;;;;;;;9.20;3.10;;;;;;;;;;5006118;28;20125;-80
2021/03/13 06:51:23;;;;;;;4.75;2.50;;;;;;;;;;4992651;28;20045;-80
2021/03/13 06:54:01;;;;;;;4.07;2.20;;;;;;;;;;5010391;28;20054;-81
2021/03/13 06:56:29;;;;;;;5.57;2.25;;;;;;;;;;5007939;28;20042;-81
2021/03/13 06:58:56;;;;;;;6.15;2.20;;;;;;;;;;4984506;28;20041;-80
2021/03/13 07:01:30;;;;;;;3.42;1.15;;;;;;;;;;5007257;28;20042;-80
2021/03/13 07:03:57;;;;;;;6.28;1.70;;;;;;;;;;5001596;28;20453;-81
2021/03/13 07:06:23;;;;;;;5.47;1.48;;;;;;;;;;4984042;28;20050;-77
2021/03/13 07:08:51;;;;;;;7.32;2.00;;;;;;;;;;5008170;28;20045;-82
2021/03/13 07:11:18;;;;;;;8.52;1.83;;;;;;;;;;4993345;28;20141;-82
2021/03/13 07:13:46;;;;;;;4.03;1.40;;;;;;;;;;4994380;28;20112;-82
2021/03/13 07:16:21;;;;;;;6.60;1.27;;;;;;;;;;4994728;28;20040;-81
2021/03/13 07:18:48;;;;;;;4.82;0.88;;;;;;;;;;5011312;28;20038;-81
2021/03/13 07:21:15;;;;;;;8.50;1.15;;;;;;;;;;4983471;28;20089;-82
2021/03/13 07:23:42;;;;;;;9.75;1.33;;;;;;;;;;5003476;28;20465;-81
2021/03/13 07:26:09;;;;;;;6.30;1.40;;;;;;;;;;4987020;28;20038;-80
2021/03/13 07:28:37;;;;;;;7.25;1.30;;;;;;;;;;5005193;28;20473;-82
2021/03/13 07:31:03;;;;;;;13.93;1.50;;;;;;;;;;5004855;28;20049;-82
2021/03/13 07:33:30;;;;;;;12.02;2.10;;;;;;;;;;5001043;28;20795;-81
2021/03/13 07:35:56;;;;;;;11.88;1.50;;;;;;;;;;5005664;28;20042;-81
2021/03/13 07:38:25;;;;;;;13.40;1.63;;;;;;;;;;4988013;28;20045;-80
2021/03/13 07:40:53;;;;;;;8.35;2.40;;;;;;;;;;5004386;28;20042;-81
2021/03/13 07:43:20;;;;;;;16.52;2.25;;;;;;;;;;5003084;28;20049;-81
2021/03/13 07:45:47;;;;;;;21.98;3.08;;;;;;;;;;5007876;28;20481;-81
2021/03/13 07:48:14;;;;;;;21.50;2.70;;;;;;;;;;5000429;28;20033;-81
2021/03/13 07:50:41;;;;;;;14.60;2.75;;;;;;;;;;5002391;28;20041;-83
2021/03/13 07:53:07;;;;;;;20.02;2.53;;;;;;;;;;4999164;28;20141;-82
2021/03/13 07:55:34;;;;;;;14.68;2.78;;;;;;;;;;4993929;28;20180;-79
2021/03/13 07:58:01;;;;;;;15.23;2.85;;;;;;;;;;4994063;28;20528;-79
2021/03/13 08:00:41;;;;;;;19.10;3.15;;;;;;;;;;4993656;28;20042;-80
2021/03/13 08:03:26;;;;;;;25.88;3.50;;;;;;;;;;4997394;28;20047;-82
2021/03/13 08:05:59;;;;;;;21.30;3.03;;;;;;;;;;5009837;28;20493;-82
2021/03/13 08:08:35;;;;;;;17.10;3.08;;;;;;;;;;4998397;28;20504;-82
2021/03/13 08:11:01;;;;;;;21.42;3.65;;;;;;;;;;4993323;28;20113;-81
2021/03/13 08:13:27;;;;;;;20.08;3.45;;;;;;;;;;4996203;28;20052;-82
2021/03/13 08:16:07;;;;;;;20.02;3.15;;;;;;;;;;4991934;28;20050;-82
2021/03/13 08:18:45;;;;;;;18.50;3.35;;;;;;;;;;4984928;28;20402;-82
2021/03/13 08:21:20;;;;;;;24.17;4.10;;;;;;;;;;5001877;28;20049;-82
2021/03/13 08:24:07;;;;;;;18.90;3.38;;;;;;;;;;5009440;28;20050;-84
2021/03/13 08:26:36;;;;;;;21.27;3.22;;;;;;;;;;5011363;28;20486;-86
2021/03/13 08:29:03;;;;;;;22.95;2.88;;;;;;;;;;5008048;28;20041;-81
2021/03/13 08:31:32;;;;;;;27.20;3.70;;;;;;;;;;4993757;28;20065;-82
2021/03/13 08:33:59;;;;;;;18.73;3.10;;;;;;;;;;5008303;28;20076;-82
2021/03/13 08:36:27;;;;;;;18.20;3.63;;;;;;;;;;5000482;28;20552;-80
2021/03/13 08:38:53;;;;;;;26.67;4.32;;;;;;;;;;5006073;28;20065;-81
2021/03/13 08:41:38;;;;;;;29.30;5.07;;;;;;;;;;4995441;28;20037;-82
2021/03/13 08:44:04;;;;;;;19.67;3.53;;;;;;;;;;4994914;28;20512;-77
2021/03/13 08:46:44;;;;;;;29.88;5.55;;;;;;;;;;4994300;28;20058;-78
2021/03/13 08:49:11;;;;;;;20.33;4.03;;;;;;;;;;4983004;28;20038;-78
2021/03/13 08:51:37;;;;;;;18.83;3.70;;;;;;;;;;5010380;28;20042;-80
2021/03/13 08:54:03;;;;;;;18.33;3.15;;;;;;;;;;4989063;28;20053;-81
2021/03/13 08:56:43;;;;;;;23.23;4.53;;;;;;;;;;5007531;28;20062;-76
2021/03/13 08:59:17;;;;;;;22.00;4.28;;;;;;;;;;5005839;28;20060;-76
2021/03/13 09:01:45;;;;;;;20.80;3.78;;;;;;;;;;5002980;28;20069;-76
2021/03/13 09:04:12;;;;;;;23.00;3.78;;;;;;;;;;4998369;28;20107;-78
2021/03/13 09:06:39;;;;;;;15.05;3.10;;;;;;;;;;4992596;28;20129;-78
2021/03/13 09:09:24;;;;;;;21.38;3.92;;;;;;;;;;5009018;28;20042;-78
2021/03/13 09:12:01;;;;;;;21.60;3.67;;;;;;;;;;5010659;28;20038;-76
2021/03/13 09:14:27;;;;;;;22.35;4.38;;;;;;;;;;5003314;28;20038;-79
2021/03/13 09:16:54;;;;;;;22.65;4.35;;;;;;;;;;5008779;28;20045;-79
2021/03/13 09:19:20;;;;;;;16.90;3.60;;;;;;;;;;5000394;28;20055;-82
2021/03/13 09:21:48;;;;;;;15.48;3.55;;;;;;;;;;4992400;28;20034;-79
2021/03/13 09:24:16;;;;;;;26.15;5.60;;;;;;;;;;5005565;28;20125;-80
2021/03/13 09:26:42;;;;;;;16.83;3.38;;;;;;;;;;4982883;28;20047;-81
2021/03/13 09:29:08;;;;;;;18.42;4.40;;;;;;;;;;4986036;28;20100;-78
2021/03/13 09:31:35;;;;;;;21.90;3.25;;;;;;;;;;5004463;28;20042;-76
2021/03/13 09:34:21;;;;;;;17.88;4.47;;;;;;;;;;5013783;28;20046;-76
2021/03/13 09:36:47;;;;;;;17.02;3.05;;;;;;;;;;5006666;28;20046;-79
2021/03/13 09:39:19;;;;;;;22.35;4.13;;;;;;;;;;4984772;28;20057;-78
2021/03/13 09:42:05;;;;;;;17.25;3.60;;;;;;;;;;5012598;28;20046;-77
2021/03/13 09:44:42;;;;;;;16.13;3.15;;;;;;;;;;5010625;28;20044;-78
2021/03/13 09:47:18;;;;;;;23.15;3.53;;;;;;;;;;5011383;28;20382;-78
2021/03/13 09:49:46;;;;;;;24.38;3.83;;;;;;;;;;5009028;28;20042;-78
2021/03/13 09:52:12;;;;;;;23.45;3.90;;;;;;;;;;5015825;28;20093;-80
2021/03/13 09:54:38;;;;;;;18.15;3.10;;;;;;;;;;5013290;28;20046;-77
2021/03/13 09:57:09;;;;;;;20.35;3.00;;;;;;;;;;4999865;28;20046;-82
2021/03/13 09:59:35;;;;;;;17.88;3.28;;;;;;;;;;5014811;28;20038;-79
2021/03/13 10:02:02;;;;;;;21.00;4.15;;;;;;;;;;5015919;28;20038;-75
2021/03/13 10:04:28;;;;;;;18.88;3.40;;;;;;;;;;4997169;28;20037;-81
2021/03/13 10:06:54;;;;;;;21.25;3.15;;;;;;;;;;5015942;28;20042;-77
2021/03/13 10:09:20;;;;;;;20.60;3.28;;;;;;;;;;4998089;28;20117;-79
2021/03/13 10:11:46;;;;;;;19.67;3.88;;;;;;;;;;5013358;28;20116;-76
2021/03/13 10:14:17;;;;;;;19.50;4.03;;;;;;;;;;4979314;28;20042;-76
2021/03/13 10:16:43;;;;;;;22.00;4.28;;;;;;;;;;5013017;28;20121;-75
2021/03/13 10:19:30;;;;;;;22.35;3.75;;;;;;;;;;5002332;28;20042;-76
2021/03/13 10:22:13;;;;;;;23.08;3.70;;;;;;;;;;5004473;28;20544;-76
2021/03/13 10:24:42;;;;;;;20.88;3.30;;;;;;;;;;5003166;28;20046;-76
2021/03/13 10:27:09;;;;;;;24.95;4.28;;;;;;;;;;4985945;28;20038;-79
2021/03/13 10:29:35;;;;;;;20.65;3.90;;;;;;;;;;4985847;28;20042;-77
2021/03/13 10:32:02;;;;;;;15.18;3.20;;;;;;;;;;4996850;28;20054;-76
2021/03/13 10:34:34;;;;;;;27.33;4.80;;;;;;;;;;5002833;28;20073;-75
2021/03/13 10:37:00;;;;;;;23.23;3.72;;;;;;;;;;5014305;28;20034;-76
2021/03/13 10:39:26;;;;;;;21.33;4.03;;;;;;;;;;5011647;28;20128;-76
2021/03/13 10:41:58;;;;;;;20.98;3.70;;;;;;;;;;5012844;28;20458;-76
2021/03/13 10:44:25;;;;;;;26.40;4.30;;;;;;;;;;4992262;28;20496;-75
2021/03/13 10:46:51;;;;;;;22.13;4.43;;;;;;;;;;4988614;28;20055;-76
2021/03/13 10:49:25;;;;;;;23.02;3.55;;;;;;;;;;4973179;28;20030;-78
2021/03/13 10:51:52;;;;;;;24.85;3.95;;;;;;;;;;4969880;28;20057;-76
2021/03/13 10:54:27;;;;;;;21.55;3.28;;;;;;;;;;4973559;28;20072;-76
2021/03/13 10:56:54;;;;;;;21.67;3.40;;;;;;;;;;4977434;28;20039;-75
2021/03/13 10:59:40;;;;;;;18.70;3.90;;;;;;;;;;4973165;28;20050;-75
2021/03/13 11:02:07;;;;;;;13.25;2.67;;;;;;;;;;4972619;28;20063;-75
2021/03/13 11:04:33;;;;;;;12.02;2.50;;;;;;;;;;4973557;28;20401;-76
2021/03/13 11:06:59;;;;;;;12.65;3.10;;;;;;;;;;4967898;28;20039;-77
2021/03/13 11:09:25;;;;;;;16.95;3.35;;;;;;;;;;4955966;28;20047;-77
2021/03/13 11:11:52;;;;;;;13.18;3.15;;;;;;;;;;4955665;28;20046;-76
2021/03/13 11:14:18;;;;;;;17.45;2.95;;;;;;;;;;4955838;28;20058;-77
2021/03/13 11:16:45;;;;;;;16.85;3.20;;;;;;;;;;4969718;28;20042;-79
2021/03/13 11:19:12;;;;;;;14.25;2.50;;;;;;;;;;4964768;28;20175;-79
2021/03/13 11:21:38;;;;;;;15.75;3.28;;;;;;;;;;4972267;28;20394;-84
2021/03/13 11:24:04;;;;;;;19.58;3.55;;;;;;;;;;4972884;28;20117;-77
2021/03/13 11:26:31;;;;;;;14.52;2.45;;;;;;;;;;4964799;28;20494;-75
2021/03/13 11:28:57;;;;;;;17.25;2.47;;;;;;;;;;4968226;28;20101;-75
2021/03/13 11:31:23;;;;;;;16.92;3.05;;;;;;;;;;4956043;28;20122;-74
2021/03/13 11:33:49;;;;;;;12.63;2.25;;;;;;;;;;4971865;28;20482;-73
2021/03/13 11:36:16;;;;;;;14.73;2.90;;;;;;;;;;4973324;28;20038;-75
2021/03/13 11:38:42;;;;;;;19.05;3.15;;;;;;;;;;4945021;28;20387;-76
2021/03/13 11:41:10;;;;;;;19.60;3.33;;;;;;;;;;4971073;28;20045;-74
2021/03/13 11:43:38;;;;;;;16.77;2.92;;;;;;;;;;4972234;28;20113;-75
2021/03/13 11:46:05;;;;;;;14.85;2.88;;;;;;;;;;4959432;28;607463;-75
2021/03/13 11:48:31;;;;;;;16.08;2.47;;;;;;;;;;4988126;28;20038;-80
2021/03/13 11:50:58;;;;;;;24.70;3.58;;;;;;;;;;4991233;28;20051;-76
2021/03/13 11:53:24;;;;;;;15.60;3.28;;;;;;;;;;4985629;28;20057;-79
2021/03/13 11:55:50;;;;;;;19.52;3.42;;;;;;;;;;4990773;28;20049;-74
2021/03/13 11:58:16;;;;;;;14.43;3.08;;;;;;;;;;4997125;28;20049;-77
2021/03/13 12:00:42;;;;;;;10.02;2.25;;;;;;;;;;4988806;28;20038;-80
2021/03/13 12:03:09;;;;;;;9.18;2.35;;;;;;;;;;4992380;28;20466;-81
2021/03/13 12:05:35;;;;;;;14.25;2.95;;;;;;;;;;4994917;28;20050;-76
2021/03/13 12:08:01;;;;;;;12.50;2.78;;;;;;;;;;4992330;28;20047;-84
2021/03/13 12:10:27;;;;;;;16.58;2.78;;;;;;;;;;4998490;28;20109;-85
2021/03/13 12:12:54;;;;;;;11.98;2.25;;;;;;;;;;4992603;28;20046;-83
2021/03/13 12:15:22;;;;;;;12.18;2.47;;;;;;;;;;4989765;28;20121;-81
2021/03/13 12:17:49;;;;;;;11.45;1.70;;;;;;;;;;4983524;28;20049;-81
2021/03/13 12:20:15;;;;;;;13.43;2.42;;;;;;;;;;4992693;28;20383;-83
2021/03/13 12:22:41;;;;;;;9.02;2.33;;;;;;;;;;4992544;28;20517;-81
2021/03/13 12:25:08;;;;;;;15.60;2.75;;;;;;;;;;4989963;28;20092;-80
2021/03/13 12:27:40;;;;;;;16.92;2.90;;;;;;;;;;4991366;28;20205;-77
2021/03/13 12:30:11;;;;;;;16.25;2.42;;;;;;;;;;4991703;28;20100;-77
2021/03/13 12:32:37;;;;;;;10.57;2.25;;;;;;;;;;4985661;28;20041;-77
2021/03/13 12:35:04;;;;;;;14.50;2.80;;;;;;;;;;4991204;28;20050;-75
2021/03/13 12:37:30;;;;;;;13.43;2.88;;;;;;;;;;4991018;28;20038;-77
2021/03/13 12:39:57;;;;;;;17.88;3.22;;;;;;;;;;4992100;28;20042;-75
2021/03/13 12:42:24;;;;;;;13.27;2.55;;;;;;;;;;4990765;28;20043;-77
2021/03/13 12:44:50;;;;;;;15.02;1.73;;;;;;;;;;4989079;28;20050;-76
2021/03/13 12:47:16;;;;;;;13.10;2.17;;;;;;;;;;5006322;28;20477;-85
2021/03/13 12:49:42;;;;;;;10.75;2.15;;;;;;;;;;5011244;28;20038;-77
2021/03/13 12:52:08;;;;;;;16.67;2.95;;;;;;;;;;5009889;28;20478;-77
2021/03/13 12:54:34;;;;;;;24.02;3.53;;;;;;;;;;5011877;28;20045;-75
2021/03/13 12:57:00;;;;;;;10.00;2.50;;;;;;;;;;5010873;28;20042;-75
2021/03/13 12:59:27;;;;;;;16.30;3.00;;;;;;;;;;5010402;28;20117;-73
2021/03/13 13:01:53;;;;;;;11.23;2.47;;;;;;;;;;4990053;28;20088;-73
2021/03/13 13:04:19;;;;;;;13.20;2.25;;;;;;;;;;5010855;28;20034;-73
2021/03/13 13:06:45;;;;;;;14.02;2.10;;;;;;;;;;5006197;28;20046;-75
2021/03/13 13:09:12;;;;;;;13.43;2.38;;;;;;;;;;5008795;28;20042;-75
2021/03/13 13:11:38;;;;;;;12.57;2.30;;;;;;;;;;4993619;28;20068;-77
2021/03/13 13:14:05;;;;;;;22.63;2.97;;;;;;;;;;5003601;28;20049;-85
2021/03/13 13:16:31;;;;;;;20.98;2.80;;;;;;;;;;4994061;28;20103;-83
2021/03/13 13:18:57;;;;;;;13.88;2.65;;;;;;;;;;4995243;28;20038;-81
2021/03/13 13:21:24;;;;;;;8.90;2.13;;;;;;;;;;5008492;28;20046;-87
2021/03/13 13:23:50;;;;;;;14.13;2.78;;;;;;;;;;4977688;28;20068;-85
2021/03/13 13:26:16;;;;;;;11.30;2.55;;;;;;;;;;4976827;28;20070;-79
2021/03/13 13:28:42;;;;;;;14.60;3.08;;;;;;;;;;4994697;28;20049;-74
2021/03/13 13:31:08;;;;;;;11.55;2.03;;;;;;;;;;4992691;28;20038;-78
2021/03/13 13:33:34;;;;;;;13.88;2.40;;;;;;;;;;5006322;28;20481;-72
2021/03/13 13:36:01;;;;;;;10.35;1.70;;;;;;;;;;4992389;28;20042;-72
2021/03/13 13:38:28;;;;;;;11.20;2.00;;;;;;;;;;4986174;28;20424;-72
2021/03/13 13:40:54;;;;;;;10.40;2.33;;;;;;;;;;5004628;28;20050;-75
2021/03/13 13:43:21;;;;;;;10.52;2.17;;;;;;;;;;5003436;28;20042;-72
2021/03/13 13:45:47;;;;;;;10.27;1.90;;;;;;;;;;5003414;28;20054;-72
2021/03/13 13:48:14;;;;;;;10.82;1.80;;;;;;;;;;5002423;28;20050;-73
2021/03/13 13:50:43;;;;;;;14.45;2.20;;;;;;;;;;5003002;28;20064;-79
2021/03/13 13:53:09;;;;;;;13.45;2.38;;;;;;;;;;5004606;28;20034;-73
2021/03/13 13:55:38;;;;;;;12.63;2.65;;;;;;;;;;4985657;28;20080;-73
2021/03/13 13:58:04;;;;;;;9.73;1.73;;;;;;;;;;5003444;28;20046;-71
2021/03/13 14:00:30;;;;;;;10.48;1.88;;;;;;;;;;5005718;28;20038;-73
2021/03/13 14:02:56;;;;;;;13.25;1.90;;;;;;;;;;5004281;28;20068;-76
2021/03/13 14:05:24;;;;;;;9.95;2.85;;;;;;;;;;5006033;28;20501;-82
2021/03/13 14:07:50;;;;;;;12.77;2.03;;;;;;;;;;4988515;28;20445;-80
2021/03/13 14:10:17;;;;;;;11.35;2.70;;;;;;;;;;4991515;28;20761;-76
2021/03/13 14:12:43;;;;;;;12.00;1.90;;;;;;;;;;4993895;28;20041;-79
2021/03/13 14:15:10;;;;;;;12.95;1.95;;;;;;;;;;5005146;28;20038;-75
2021/03/13 14:17:36;;;;;;;15.10;2.40;;;;;;;;;;5006715;28;20029;-78
2021/03/13 14:20:03;;;;;;;13.55;2.03;;;;;;;;;;5003466;28;20038;-79
2021/03/13 14:22:29;;;;;;;8.52;2.75;;;;;;;;;;5007205;28;20041;-79
2021/03/13 14:24:56;;;;;;;12.25;2.38;;;;;;;;;;5007814;28;20084;-79
2021/03/13 14:27:22;;;;;;;9.98;1.90;;;;;;;;;;4988940;28;20115;-78
2021/03/13 14:29:49;;;;;;;9.95;2.70;;;;;;;;;;5006014;28;20042;-77
2021/03/13 14:32:15;;;;;;;11.77;1.90;;;;;;;;;;4988547;28;20061;-77
2021/03/13 14:34:41;;;;;;;6.85;1.85;;;;;;;;;;4987474;28;20053;-78
2021/03/13 14:37:07;;;;;;;12.23;2.95;;;;;;;;;;5006062;28;20042;-78